createdAt,value
2022-11-23T00:02:25.877Z,16.80
2022-11-23T00:04:57.938Z,12.07
2022-11-23T00:07:30.872Z,10.05
2022-11-23T00:09:58.448Z,8.55
2022-11-23T00:12:25.778Z,11.63
2022-11-23T00:14:53.267Z,14.55
2022-11-23T00:17:20.581Z,17.55
2022-11-23T00:19:48.121Z,12.27
2022-11-23T00:22:15.391Z,13.70
2022-11-23T00:24:42.769Z,10.48
2022-11-23T00:27:10.025Z,13.75
2022-11-23T00:29:37.773Z,10.63
2022-11-23T00:32:06.342Z,22.02
2022-11-23T00:34:37.635Z,9.00
2022-11-23T00:37:05.138Z,12.95
2022-11-23T00:39:32.686Z,11.55
2022-11-23T00:42:00.247Z,11.45
2022-11-23T00:44:27.568Z,13.35
2022-11-23T00:46:55.042Z,12.65
2022-11-23T00:49:22.415Z,11.02
2022-11-23T00:51:49.783Z,13.52
2022-11-23T00:54:18.775Z,10.73
2022-11-23T00:56:46.196Z,10.55
2022-11-23T00:59:13.556Z,9.05
2022-11-23T01:01:41.090Z,11.20
2022-11-23T01:04:09.338Z,12.88
2022-11-23T01:06:38.738Z,8.25
2022-11-23T01:09:08.517Z,11.07
2022-11-23T01:11:36.161Z,13.40
2022-11-23T01:14:03.924Z,11.40
2022-11-23T01:16:33.578Z,9.85
2022-11-23T01:19:02.218Z,12.95
2022-11-23T01:21:30.218Z,9.85
2022-11-23T01:23:57.573Z,15.52
2022-11-23T01:26:25.375Z,10.60
2022-11-23T01:28:52.863Z,9.32
2022-11-23T01:31:24.699Z,11.43
2022-11-23T01:33:59.040Z,13.18
2022-11-23T01:36:28.097Z,14.50
2022-11-23T01:38:55.399Z,12.88
2022-11-23T01:41:23.867Z,12.43
2022-11-23T01:43:51.971Z,11.20
2022-11-23T01:46:19.559Z,11.98
2022-11-23T01:49:01.994Z,12.80
2022-11-23T01:51:31.649Z,10.15
2022-11-23T01:54:01.593Z,14.23
2022-11-23T01:56:36.409Z,9.80
2022-11-23T02:01:31.293Z,10.15
2022-11-23T02:04:00.054Z,9.73
2022-11-23T02:06:27.396Z,10.82
2022-11-23T02:08:54.981Z,12.82
2022-11-23T02:11:22.530Z,11.30
2022-11-23T02:13:50.778Z,11.85
2022-11-23T02:16:19.154Z,9.98
2022-11-23T02:18:49.159Z,10.27
2022-11-23T02:21:21.645Z,11.02
2022-11-23T02:23:55.211Z,10.02
2022-11-23T02:26:33.556Z,9.30
2022-11-23T02:29:09.028Z,9.88
2022-11-23T02:31:36.526Z,9.95
2022-11-23T02:34:04.151Z,11.75
2022-11-23T02:36:41.149Z,10.65
2022-11-23T02:39:09.979Z,9.68
2022-11-23T02:41:38.255Z,8.90
2022-11-23T02:44:14.518Z,9.10
2022-11-23T02:46:43.004Z,7.53
2022-11-23T02:49:10.320Z,9.15
2022-11-23T02:51:37.598Z,11.20
2022-11-23T02:54:04.949Z,11.90
2022-11-23T02:56:35.214Z,15.50
2022-11-23T02:59:04.051Z,13.68
2022-11-23T03:01:31.493Z,9.35
2022-11-23T03:03:58.955Z,10.13
2022-11-23T03:06:29.316Z,10.38
2022-11-23T03:08:57.041Z,13.82
2022-11-23T03:11:24.443Z,11.77
2022-11-23T03:13:51.739Z,12.20
2022-11-23T03:16:21.059Z,13.52
2022-11-23T03:18:49.573Z,11.55
2022-11-23T03:21:18.406Z,16.35
2022-11-23T03:23:45.886Z,15.15
2022-11-23T03:26:14.375Z,14.85
2022-11-23T03:28:54.475Z,12.30
2022-11-23T03:31:22.351Z,13.32
2022-11-23T03:33:50.152Z,15.65
2022-11-23T03:36:17.517Z,16.75
2022-11-23T03:38:47.956Z,11.95
2022-11-23T03:41:47.400Z,11.95
2022-11-23T03:44:15.031Z,17.40
2022-11-23T03:46:43.399Z,20.80
2022-11-23T03:49:10.893Z,14.07
2022-11-23T03:51:38.386Z,10.98
2022-11-23T03:54:05.782Z,12.13
2022-11-23T03:56:34.350Z,11.93
2022-11-23T03:59:02.053Z,10.10
2022-11-23T04:01:29.340Z,13.57
2022-11-23T04:04:02.150Z,16.75
2022-11-23T04:06:49.730Z,13.93
2022-11-23T04:09:27.344Z,13.45
2022-11-23T04:12:04.046Z,11.05
2022-11-23T04:14:31.874Z,21.20
2022-11-23T04:17:02.035Z,9.73
2022-11-23T04:19:30.720Z,11.90
2022-11-23T04:21:58.572Z,11.25
2022-11-23T04:24:32.367Z,12.77
2022-11-23T04:27:03.535Z,14.45
2022-11-23T04:29:31.532Z,12.60
2022-11-23T04:31:59.087Z,13.77
2022-11-23T04:34:26.869Z,13.63
2022-11-23T04:36:56.334Z,17.02
2022-11-23T04:39:31.172Z,9.40
2022-11-23T04:42:24.216Z,9.15
2022-11-23T04:44:57.936Z,9.23
2022-11-23T04:47:25.623Z,15.25
2022-11-23T04:49:54.211Z,9.35
2022-11-23T04:52:21.745Z,9.80
2022-11-23T04:54:51.031Z,13.20
2022-11-23T04:57:18.540Z,12.55
2022-11-23T04:59:48.113Z,8.60
2022-11-23T05:02:17.306Z,12.73
2022-11-23T05:04:50.697Z,13.60
2022-11-23T05:07:20.855Z,14.45
2022-11-23T05:09:55.234Z,11.38
2022-11-23T05:12:22.688Z,8.55
2022-11-23T05:14:50.811Z,12.07
2022-11-23T05:17:26.123Z,12.55
2022-11-23T05:19:56.236Z,12.63
2022-11-23T05:22:24.854Z,8.80
2022-11-23T05:24:54.082Z,14.45
2022-11-23T05:27:24.078Z,10.95
2022-11-23T05:29:51.730Z,9.93
2022-11-23T05:32:19.292Z,10.35
2022-11-23T05:34:46.620Z,10.82
2022-11-23T05:37:16.191Z,11.20
2022-11-23T05:39:52.374Z,9.38
2022-11-23T05:42:21.104Z,13.57
2022-11-23T05:44:50.919Z,14.35
2022-11-23T05:47:23.307Z,10.95
2022-11-23T05:49:51.063Z,9.23
2022-11-23T05:52:22.071Z,11.57
2022-11-23T05:54:49.682Z,10.23
2022-11-23T05:57:17.822Z,13.32
2022-11-23T05:59:46.337Z,11.95
2022-11-23T06:02:18.600Z,13.48
2022-11-23T06:04:48.299Z,12.93
2022-11-23T06:07:20.072Z,15.15
2022-11-23T06:10:09.187Z,13.90
2022-11-23T06:12:40.316Z,14.85
2022-11-23T06:15:12.480Z,12.30
2022-11-23T06:17:40.480Z,10.02
2022-11-23T06:20:12.737Z,12.45
2022-11-23T06:22:44.200Z,7.97
2022-11-23T06:25:11.654Z,10.73
2022-11-23T06:27:41.406Z,14.50
2022-11-23T06:30:17.605Z,6.18
2022-11-23T06:32:45.719Z,15.65
2022-11-23T06:35:12.936Z,16.15
2022-11-23T06:37:42.283Z,15.45
2022-11-23T06:40:10.494Z,8.55
2022-11-23T06:42:39.718Z,12.07
2022-11-23T06:45:12.967Z,8.52
2022-11-23T06:47:40.544Z,12.48
2022-11-23T06:50:09.344Z,12.75
2022-11-23T06:52:38.288Z,16.55
2022-11-23T06:55:05.685Z,10.85
2022-11-23T06:57:33.149Z,13.68
2022-11-23T07:00:01.034Z,12.82
2022-11-23T07:02:34.778Z,11.07
2022-11-23T07:05:02.608Z,9.35
2022-11-23T07:07:32.058Z,10.52
2022-11-23T07:10:09.458Z,12.95
2022-11-23T07:12:44.006Z,11.15
2022-11-23T07:15:11.898Z,8.73
2022-11-23T07:17:44.668Z,10.32
2022-11-23T07:20:12.943Z,11.65
2022-11-23T07:22:40.739Z,11.68
2022-11-23T07:25:08.796Z,12.70
2022-11-23T07:27:36.140Z,13.80
2022-11-23T07:30:04.911Z,16.13
2022-11-23T07:32:32.142Z,16.23
2022-11-23T07:34:59.748Z,15.43
2022-11-23T07:37:29.047Z,15.68
2022-11-23T07:39:58.089Z,11.77
2022-11-23T07:42:39.906Z,14.43
2022-11-23T07:45:12.085Z,16.27
2022-11-23T07:47:44.112Z,9.57
2022-11-23T07:50:12.299Z,17.48
2022-11-23T07:52:40.282Z,26.75
2022-11-23T07:55:07.903Z,17.65
2022-11-23T07:57:35.110Z,16.58
2022-11-23T08:00:02.634Z,21.63
2022-11-23T08:02:52.664Z,17.73
2022-11-23T08:05:29.146Z,10.77
2022-11-23T08:08:00.373Z,12.20
2022-11-23T08:10:28.563Z,11.32
2022-11-23T08:12:59.600Z,14.80
2022-11-23T08:15:30.461Z,12.43
2022-11-23T08:17:58.328Z,12.85
2022-11-23T08:20:26.292Z,11.68
2022-11-23T08:22:55.970Z,9.70
2022-11-23T08:25:24.232Z,17.75
2022-11-23T08:28:02.636Z,17.70
2022-11-23T08:30:30.935Z,13.52
2022-11-23T08:32:58.231Z,10.75
2022-11-23T08:35:25.713Z,9.82
2022-11-23T08:37:53.092Z,13.98
2022-11-23T08:40:25.062Z,13.35
2022-11-23T08:42:53.161Z,16.27
2022-11-23T08:45:20.466Z,11.98
2022-11-23T08:47:50.632Z,10.77
2022-11-23T08:50:18.520Z,14.57
2022-11-23T08:52:45.770Z,14.88
2022-11-23T08:55:13.435Z,13.38
2022-11-23T08:57:40.706Z,13.38
2022-11-23T09:00:08.462Z,10.82
2022-11-23T09:02:35.949Z,12.75
2022-11-23T09:05:04.595Z,13.02
2022-11-23T09:07:32.938Z,10.95
2022-11-23T09:10:00.437Z,13.73
2022-11-23T09:12:27.913Z,9.57
2022-11-23T09:14:55.199Z,14.15
2022-11-23T09:17:22.518Z,16.65
2022-11-23T09:19:50.557Z,13.80
2022-11-23T09:22:17.824Z,14.68
2022-11-23T09:24:47.575Z,16.20
2022-11-23T09:27:16.289Z,10.55
2022-11-23T09:29:43.573Z,13.38
2022-11-23T09:32:10.974Z,13.70
2022-11-23T09:34:38.339Z,9.63
2022-11-23T09:37:05.926Z,11.13
2022-11-23T09:39:33.160Z,10.73
2022-11-23T09:42:13.604Z,17.27
2022-11-23T09:45:01.227Z,11.73
2022-11-23T09:47:48.505Z,13.88
2022-11-23T09:50:24.155Z,15.90
2022-11-23T09:52:52.121Z,11.15
2022-11-23T09:55:25.255Z,13.98
2022-11-23T09:57:56.102Z,11.20
2022-11-23T10:00:23.957Z,9.90
2022-11-23T10:02:51.317Z,13.75
2022-11-23T10:05:21.016Z,15.65
2022-11-23T10:07:48.307Z,8.82
2022-11-23T10:10:15.701Z,14.50
2022-11-23T10:13:02.730Z,12.30
2022-11-23T10:15:38.993Z,12.10
2022-11-23T10:18:15.921Z,11.63
2022-11-23T10:21:02.001Z,9.00
2022-11-23T10:23:44.145Z,13.05
2022-11-23T10:26:14.593Z,13.20
2022-11-23T10:28:41.877Z,13.13
2022-11-23T10:31:14.213Z,15.82
2022-11-23T10:33:44.875Z,9.68
2022-11-23T10:36:13.838Z,9.30
2022-11-23T10:38:41.592Z,12.02
2022-11-23T10:41:10.730Z,11.60
2022-11-23T10:43:47.293Z,12.25
2022-11-23T10:46:48.625Z,20.17
2022-11-23T10:49:20.577Z,12.82
2022-11-23T10:51:52.672Z,9.88
2022-11-23T10:54:31.017Z,8.45
2022-11-23T10:56:59.850Z,8.43
2022-11-23T10:59:28.315Z,10.98
2022-11-23T11:02:02.699Z,11.25
2022-11-23T11:04:30.856Z,9.45
2022-11-23T11:07:22.539Z,10.52
2022-11-23T11:09:54.791Z,10.90
2022-11-23T11:12:22.549Z,13.43
2022-11-23T11:15:12.361Z,10.05
2022-11-23T11:17:42.112Z,10.43
2022-11-23T11:20:25.120Z,10.13
2022-11-23T11:22:52.602Z,9.60
2022-11-23T11:25:29.827Z,6.95
2022-11-23T11:27:57.599Z,12.02
2022-11-23T11:30:31.914Z,8.40
2022-11-23T11:33:26.466Z,7.78
2022-11-23T11:35:54.462Z,9.63
2022-11-23T11:38:34.260Z,17.63
2022-11-23T11:41:07.099Z,8.98
2022-11-23T11:43:40.521Z,6.53
2022-11-23T11:46:29.460Z,12.73
2022-11-23T11:49:05.000Z,8.68
2022-11-23T11:54:02.504Z,9.07
2022-11-23T11:56:37.249Z,14.30
2022-11-23T11:59:19.801Z,11.30
2022-11-23T12:01:55.045Z,8.63
2022-11-23T12:04:26.806Z,5.30
2022-11-23T12:06:57.193Z,10.45
2022-11-23T12:09:27.261Z,8.32
2022-11-23T12:11:54.684Z,12.90
2022-11-23T12:14:22.200Z,6.18
2022-11-23T12:17:30.716Z,10.10
2022-11-23T12:19:55.364Z,8.65
2022-11-23T12:22:34.907Z,9.98
2022-11-23T12:25:21.212Z,9.05
2022-11-23T12:27:55.488Z,9.48
2022-11-23T12:30:29.994Z,10.75
2022-11-23T12:33:17.043Z,10.07
2022-11-23T12:35:44.563Z,8.75
2022-11-23T12:38:33.016Z,6.43
2022-11-23T12:41:21.593Z,7.65
2022-11-23T12:44:27.360Z,8.20
2022-11-23T12:47:19.265Z,6.28
2022-11-23T12:49:52.101Z,9.80
2022-11-23T12:52:28.218Z,9.20
2022-11-23T12:55:02.638Z,15.02
2022-11-23T12:57:42.659Z,6.68
2022-11-23T13:00:13.101Z,7.07
2022-11-23T13:02:58.950Z,5.32
2022-11-23T13:06:04.963Z,5.18
2022-11-23T13:11:18.764Z,8.18
2022-11-23T13:13:59.532Z,5.57
2022-11-23T13:16:27.211Z,8.85
2022-11-23T13:19:05.080Z,4.93
2022-11-23T13:21:40.976Z,5.07
2022-11-23T13:24:28.675Z,10.07
2022-11-23T13:27:14.150Z,7.35
2022-11-23T13:30:01.061Z,6.13
2022-11-23T13:32:54.552Z,3.63
2022-11-23T13:35:21.903Z,6.28
2022-11-23T13:37:57.968Z,5.32
2022-11-23T13:40:33.268Z,6.30
2022-11-23T13:43:02.404Z,4.07
2022-11-23T13:45:42.344Z,4.57
2022-11-23T13:48:09.642Z,5.28
2022-11-23T13:50:37.138Z,7.32
2022-11-23T13:53:05.737Z,5.68
2022-11-23T13:55:32.934Z,7.47
2022-11-23T13:58:18.834Z,5.50
2022-11-23T14:00:48.963Z,4.70
2022-11-23T14:03:35.885Z,6.55
2022-11-23T14:06:04.772Z,4.57
2022-11-23T14:08:34.856Z,6.35
2022-11-23T14:11:10.985Z,3.95
2022-11-23T14:13:41.586Z,3.72
2022-11-23T14:16:13.121Z,6.97
2022-11-23T14:18:55.741Z,4.72
2022-11-23T14:21:32.320Z,4.25
2022-11-23T14:24:18.587Z,8.95
2022-11-23T14:27:12.316Z,4.00
2022-11-23T14:29:52.545Z,7.53
2022-11-23T14:32:38.741Z,3.58
2022-11-23T14:35:24.663Z,4.53
2022-11-23T14:38:01.268Z,3.70
2022-11-23T14:40:33.850Z,4.47
2022-11-23T14:43:01.643Z,4.68
2022-11-23T14:45:30.450Z,5.68
2022-11-23T14:47:57.823Z,4.18
2022-11-23T14:50:25.278Z,7.45
2022-11-23T14:52:54.379Z,5.95
2022-11-23T14:55:23.661Z,6.70
2022-11-23T14:57:52.789Z,4.85
2022-11-23T15:00:32.183Z,7.80
2022-11-23T15:03:15.369Z,5.57
2022-11-23T15:05:54.486Z,5.70
2022-11-23T15:08:27.507Z,6.47
2022-11-23T15:11:06.683Z,4.15
2022-11-23T15:13:43.286Z,9.10
2022-11-23T15:16:12.531Z,4.55
2022-11-23T15:18:40.551Z,8.18
2022-11-23T15:21:10.996Z,5.82
2022-11-23T15:23:58.314Z,7.13
2022-11-23T15:26:48.571Z,5.47
2022-11-23T15:29:31.243Z,4.55
2022-11-23T15:34:46.757Z,5.30
2022-11-23T15:37:14.284Z,5.57
2022-11-23T15:39:42.431Z,7.32
2022-11-23T15:42:11.716Z,6.93
2022-11-23T15:44:39.216Z,5.53
2022-11-23T15:47:07.911Z,7.22
2022-11-23T15:49:38.547Z,7.32
2022-11-23T15:52:05.935Z,6.35
2022-11-23T15:54:37.109Z,4.30
2022-11-23T15:57:07.408Z,8.48
2022-11-23T15:59:38.420Z,6.13
2022-11-23T16:02:07.232Z,8.57
2022-11-23T16:04:39.544Z,7.78
2022-11-23T16:07:23.700Z,7.20
2022-11-23T16:09:53.604Z,7.70
2022-11-23T16:12:25.981Z,7.97
2022-11-23T16:14:54.700Z,9.40
2022-11-23T16:17:26.462Z,7.25
2022-11-23T16:19:55.340Z,8.65
2022-11-23T16:22:31.972Z,6.22
2022-11-23T16:25:05.529Z,7.15
2022-11-23T16:27:33.448Z,8.18
2022-11-23T16:30:03.791Z,9.95
2022-11-23T16:32:32.163Z,8.95
2022-11-23T16:35:03.914Z,6.88
2022-11-23T16:37:31.280Z,15.55
2022-11-23T16:39:58.591Z,7.38
2022-11-23T16:42:27.101Z,8.90
2022-11-23T16:44:54.501Z,12.10
2022-11-23T16:47:26.602Z,9.90
2022-11-23T16:49:54.613Z,10.57
2022-11-23T16:52:22.884Z,10.70
2022-11-23T16:54:51.114Z,10.15
2022-11-23T16:57:19.507Z,14.50
2022-11-23T16:59:47.182Z,11.57
2022-11-23T17:02:15.545Z,8.55
2022-11-23T17:04:43.408Z,15.07
2022-11-23T17:07:11.159Z,15.88
2022-11-23T17:09:39.456Z,11.98
2022-11-23T17:12:08.645Z,14.95
2022-11-23T17:14:37.872Z,13.93
2022-11-23T17:17:05.527Z,8.75
2022-11-23T17:19:33.215Z,8.15
2022-11-23T17:22:00.624Z,13.82
2022-11-23T17:24:28.110Z,15.32
2022-11-23T17:26:55.664Z,14.18
2022-11-23T17:29:24.188Z,13.38
2022-11-23T17:31:51.708Z,14.45
2022-11-23T17:34:19.122Z,17.25
2022-11-23T17:36:47.309Z,10.23
2022-11-23T17:39:20.709Z,11.50
2022-11-23T17:41:48.838Z,16.63
2022-11-23T17:44:16.834Z,10.23
2022-11-23T17:46:44.879Z,13.27
2022-11-23T17:49:17.042Z,10.90
2022-11-23T17:51:44.421Z,13.60
2022-11-23T17:54:11.879Z,14.63
2022-11-23T17:56:39.208Z,11.18
2022-11-23T17:59:06.672Z,9.55
2022-11-23T18:01:34.096Z,14.75
2022-11-23T18:04:01.473Z,11.25
2022-11-23T18:06:29.532Z,16.10
2022-11-23T18:08:57.398Z,14.05
2022-11-23T18:11:24.827Z,11.63
2022-11-23T18:13:52.416Z,14.45
2022-11-23T18:16:20.601Z,8.95
2022-11-23T18:18:48.328Z,11.90
2022-11-23T18:21:15.796Z,20.92
2022-11-23T18:23:43.645Z,13.35
2022-11-23T18:26:15.641Z,18.02
2022-11-23T18:28:43.003Z,14.70
2022-11-23T18:31:10.408Z,14.43
2022-11-23T18:33:38.111Z,15.77
2022-11-23T18:36:08.620Z,13.23
2022-11-23T18:38:36.168Z,10.73
2022-11-23T18:41:03.500Z,14.27
2022-11-23T18:43:31.198Z,18.88
2022-11-23T18:46:04.977Z,14.15
2022-11-23T18:48:32.506Z,13.52
2022-11-23T18:51:00.133Z,18.58
2022-11-23T18:53:27.480Z,22.95
2022-11-23T18:56:00.101Z,16.17
2022-11-23T18:58:32.339Z,17.60
2022-11-23T19:00:59.790Z,12.98
2022-11-23T19:03:27.200Z,16.80
2022-11-23T19:06:01.605Z,17.45
2022-11-23T19:08:29.145Z,15.13
2022-11-23T19:11:03.433Z,20.02
2022-11-23T19:13:30.795Z,17.67
2022-11-23T19:15:58.258Z,20.65
2022-11-23T19:18:25.614Z,17.73
2022-11-23T19:20:53.592Z,17.58
2022-11-23T19:23:22.666Z,21.98
2022-11-23T19:25:51.884Z,18.48
2022-11-23T19:28:19.198Z,20.88
2022-11-23T19:30:46.585Z,17.63
2022-11-23T19:33:15.205Z,18.77
2022-11-23T19:35:42.537Z,16.65
2022-11-23T19:38:11.242Z,15.45
2022-11-23T19:40:38.604Z,22.98
2022-11-23T19:43:06.022Z,18.63
2022-11-23T19:45:33.476Z,21.95
2022-11-23T19:48:00.759Z,18.45
2022-11-23T19:50:28.620Z,25.90
2022-11-23T19:53:12.268Z,18.73
2022-11-23T19:55:40.740Z,21.65
2022-11-23T19:58:08.370Z,22.77
2022-11-23T20:00:37.076Z,25.25
2022-11-23T20:03:04.460Z,23.70
2022-11-23T20:05:31.837Z,23.58
2022-11-23T20:08:01.925Z,21.70
2022-11-23T20:10:29.363Z,17.55
2022-11-23T20:12:56.585Z,16.50
2022-11-23T20:15:24.181Z,23.65
2022-11-23T20:17:51.547Z,20.88
2022-11-23T20:20:18.970Z,17.67
2022-11-23T20:22:46.367Z,26.77
2022-11-23T20:25:15.716Z,16.65
2022-11-23T20:27:45.442Z,19.10
2022-11-23T20:30:12.929Z,21.15
2022-11-23T20:32:40.306Z,22.17
2022-11-23T20:35:17.019Z,17.20
2022-11-23T20:37:55.856Z,21.38
2022-11-23T20:40:23.673Z,22.17
2022-11-23T20:42:51.114Z,21.85
2022-11-23T20:45:18.446Z,18.42
2022-11-23T20:47:47.176Z,20.73
2022-11-23T20:50:14.537Z,19.77
2022-11-23T20:52:42.234Z,20.52
2022-11-23T20:55:09.646Z,25.63
2022-11-23T20:57:40.043Z,25.85
2022-11-23T21:00:07.651Z,22.48
2022-11-23T21:02:35.694Z,21.38
2022-11-23T21:05:03.201Z,21.67
2022-11-23T21:07:30.489Z,35.65
2022-11-23T21:10:06.923Z,27.13
2022-11-23T21:12:53.570Z,22.77
2022-11-23T21:15:21.698Z,23.25
2022-11-23T21:17:48.952Z,20.27
2022-11-23T21:20:25.296Z,19.58
2022-11-23T21:23:01.790Z,26.17
2022-11-23T21:25:29.203Z,20.27
2022-11-23T21:27:56.545Z,18.17
2022-11-23T21:30:23.945Z,18.45
2022-11-23T21:32:51.512Z,15.02
2022-11-23T21:35:19.206Z,19.35
2022-11-23T21:37:48.814Z,28.73
2022-11-23T21:40:16.336Z,22.65
2022-11-23T21:42:44.756Z,17.05
2022-11-23T21:45:13.047Z,19.30
2022-11-23T21:47:40.413Z,17.77
2022-11-23T21:50:08.616Z,21.90
2022-11-23T21:52:35.845Z,23.83
2022-11-23T21:55:03.386Z,27.33
2022-11-23T21:57:30.684Z,18.52
2022-11-23T22:00:00.750Z,17.63
2022-11-23T22:02:28.259Z,17.00
2022-11-23T22:04:57.941Z,17.33
2022-11-23T22:07:28.432Z,19.85
2022-11-23T22:09:55.975Z,16.58
2022-11-23T22:12:23.412Z,19.77
2022-11-23T22:14:50.896Z,14.40
2022-11-23T22:17:18.231Z,20.70
2022-11-23T22:19:45.712Z,21.27
2022-11-23T22:22:13.441Z,16.65
2022-11-23T22:24:40.874Z,15.95
2022-11-23T22:27:08.329Z,13.68
2022-11-23T22:29:35.715Z,18.30
2022-11-23T22:32:03.094Z,17.63
2022-11-23T22:34:35.545Z,14.57
2022-11-23T22:37:08.687Z,13.70
2022-11-23T22:39:37.915Z,15.02
2022-11-23T22:42:05.431Z,15.18
2022-11-23T22:44:32.898Z,22.05
2022-11-23T22:47:00.429Z,17.50
2022-11-23T22:49:28.013Z,15.40
2022-11-23T22:52:10.352Z,12.75
2022-11-23T22:54:37.818Z,11.52
2022-11-23T22:57:05.222Z,21.67
2022-11-23T22:59:32.684Z,14.88
2022-11-23T23:02:00.001Z,14.65
2022-11-23T23:04:27.421Z,18.52
2022-11-23T23:06:56.316Z,13.95
2022-11-23T23:09:24.364Z,14.55
2022-11-23T23:11:51.840Z,11.80
2022-11-23T23:14:19.408Z,17.85
2022-11-23T23:16:46.795Z,14.70
2022-11-23T23:19:14.174Z,16.55
2022-11-23T23:21:41.562Z,13.35
2022-11-23T23:24:09.830Z,21.35
2022-11-23T23:26:37.253Z,14.40
2022-11-23T23:29:04.722Z,14.85
2022-11-23T23:31:32.079Z,13.57
2022-11-23T23:34:00.387Z,22.77
2022-11-23T23:36:27.732Z,18.42
2022-11-23T23:38:55.325Z,14.80
2022-11-23T23:41:25.973Z,10.38
2022-11-23T23:43:55.788Z,18.48
2022-11-23T23:46:23.498Z,13.02
2022-11-23T23:48:50.969Z,16.52
2022-11-23T23:51:19.783Z,16.05
2022-11-23T23:53:47.493Z,15.93
2022-11-23T23:56:19.492Z,12.95
2022-11-23T23:58:47.227Z,15.15
